Time;durP1;ratioP1;P1;durP2;ratioP2;P2;SDS_P1;SDS_P2;PMS_P1;PMS_P2;Temp;Humidity;BMP_temperature;BMP_pressure;BME280_temperature;BME280_humidity;BME280_pressure;Samples;Min_cycle;Max_cycle;Signal;HPM_P1;HPM_P2
2021/04/30 00:02:21;;;;;;;;;7.50;7.50;;;;;;;;3570060;39;113886;-76
2021/04/30 00:04:48;;;;;;;;;10.00;9.25;;;;;;;;3570205;39;112340;-76
2021/04/30 00:07:14;;;;;;;;;7.25;7.25;;;;;;;;3571222;39;113184;-75
2021/04/30 00:09:40;;;;;;;;;7.00;7.00;;;;;;;;3572917;39;112523;-76
2021/04/30 00:12:06;;;;;;;;;8.00;7.00;;;;;;;;3565585;39;112275;-76
2021/04/30 00:14:32;;;;;;;;;6.50;6.50;;;;;;;;3569987;39;114235;-76
2021/04/30 00:16:58;;;;;;;;;6.75;6.00;;;;;;;;3569277;39;111914;-76
2021/04/30 00:19:25;;;;;;;;;6.00;6.00;;;;;;;;3571770;39;113361;-76
2021/04/30 00:21:52;;;;;;;;;5.50;5.50;;;;;;;;3569435;39;114093;-76
2021/04/30 00:24:18;;;;;;;;;7.50;7.50;;;;;;;;3569131;39;111791;-76
2021/04/30 00:26:44;;;;;;;;;7.00;6.00;;;;;;;;3570280;39;113593;-76
2021/04/30 00:29:10;;;;;;;;;9.00;7.50;;;;;;;;3571067;39;114255;-76
2021/04/30 00:31:36;;;;;;;;;7.00;7.00;;;;;;;;3570661;39;113401;-76
2021/04/30 00:34:03;;;;;;;;;8.00;6.25;;;;;;;;3568300;39;113734;-75
2021/04/30 00:36:29;;;;;;;;;6.50;6.50;;;;;;;;3570282;39;112060;-76
2021/04/30 00:38:56;;;;;;;;;10.00;7.25;;;;;;;;3569205;39;113563;-77
2021/04/30 00:41:22;;;;;;;;;7.50;6.50;;;;;;;;3568945;39;113919;-77
2021/04/30 00:43:48;;;;;;;;;6.75;6.75;;;;;;;;3569895;39;113346;-76
2021/04/30 00:46:15;;;;;;;;;6.25;6.25;;;;;;;;3568902;39;113316;-77
2021/04/30 00:48:41;;;;;;;;;11.00;7.50;;;;;;;;3572564;39;114492;-76
2021/04/30 00:51:07;;;;;;;;;5.75;5.75;;;;;;;;3568640;39;113334;-77
2021/04/30 00:53:33;;;;;;;;;5.75;5.75;;;;;;;;3569844;39;115109;-76
2021/04/30 00:56:00;;;;;;;;;4.75;4.50;;;;;;;;3572614;39;113468;-77
2021/04/30 00:58:26;;;;;;;;;5.75;4.75;;;;;;;;3569299;39;113773;-77
2021/04/30 01:00:52;;;;;;;;;6.00;5.00;;;;;;;;3569132;39;114365;-76
2021/04/30 01:03:18;;;;;;;;;3.25;3.25;;;;;;;;3569613;39;111977;-76
2021/04/30 01:05:44;;;;;;;;;6.75;6.50;;;;;;;;3569016;39;112351;-76
2021/04/30 01:08:10;;;;;;;;;5.00;5.00;;;;;;;;3569774;39;114046;-76
2021/04/30 01:10:36;;;;;;;;;5.00;5.00;;;;;;;;3571514;39;111959;-76
2021/04/30 01:13:04;;;;;;;;;10.00;5.75;;;;;;;;3569575;39;113960;-76
2021/04/30 01:15:30;;;;;;;;;8.50;7.00;;;;;;;;3568781;39;111988;-75
2021/04/30 01:17:56;;;;;;;;;7.75;6.00;;;;;;;;3569769;39;113369;-75
2021/04/30 01:20:22;;;;;;;;;6.00;5.75;;;;;;;;3568884;39;114055;-75
2021/04/30 01:22:50;;;;;;;;;5.00;5.00;;;;;;;;3569170;39;112110;-75
2021/04/30 01:25:17;;;;;;;;;7.25;5.75;;;;;;;;3569798;39;113398;-75
2021/04/30 01:27:44;;;;;;;;;3.50;3.00;;;;;;;;3568455;39;113848;-76
2021/04/30 01:30:11;;;;;;;;;7.50;5.50;;;;;;;;3569965;39;111941;-76
2021/04/30 01:32:37;;;;;;;;;5.25;5.25;;;;;;;;3570642;39;113762;-75
2021/04/30 01:35:04;;;;;;;;;10.00;6.75;;;;;;;;3572352;39;112025;-76
2021/04/30 01:37:30;;;;;;;;;9.25;7.25;;;;;;;;3568707;39;113274;-75
2021/04/30 01:39:57;;;;;;;;;6.00;6.00;;;;;;;;3569336;39;113807;-76
2021/04/30 01:42:23;;;;;;;;;8.50;7.00;;;;;;;;3568969;39;112074;-75
2021/04/30 01:44:49;;;;;;;;;11.00;7.50;;;;;;;;3567269;39;112456;-75
2021/04/30 01:47:15;;;;;;;;;7.00;7.00;;;;;;;;3569086;39;114164;-75
2021/04/30 01:49:42;;;;;;;;;9.00;6.75;;;;;;;;3568685;39;111851;-75
2021/04/30 01:52:08;;;;;;;;;6.00;5.75;;;;;;;;3570186;39;113288;-75
2021/04/30 01:54:34;;;;;;;;;6.75;6.00;;;;;;;;3570668;39;114407;-75
2021/04/30 01:57:00;;;;;;;;;6.00;5.75;;;;;;;;3569878;39;113377;-75
2021/04/30 01:59:27;;;;;;;;;6.00;5.00;;;;;;;;3568434;39;114176;-75
2021/04/30 02:01:53;;;;;;;;;6.25;5.75;;;;;;;;3569308;39;111796;-75
2021/04/30 02:04:19;;;;;;;;;7.00;6.00;;;;;;;;3569179;39;113410;-75
2021/04/30 02:06:46;;;;;;;;;7.00;7.00;;;;;;;;3568500;39;114016;-75
2021/04/30 02:09:12;;;;;;;;;6.00;6.00;;;;;;;;3569582;39;111848;-76
2021/04/30 02:11:38;;;;;;;;;9.00;7.50;;;;;;;;3568449;39;113374;-76
2021/04/30 02:14:06;;;;;;;;;7.25;5.50;;;;;;;;3569498;39;113963;-76
2021/04/30 02:16:32;;;;;;;;;5.75;5.75;;;;;;;;3570961;39;112335;-75
2021/04/30 02:18:58;;;;;;;;;5.25;5.25;;;;;;;;3568949;39;114030;-75
2021/04/30 02:21:24;;;;;;;;;6.00;6.00;;;;;;;;3570009;39;111858;-76
2021/04/30 02:23:50;;;;;;;;;5.00;4.50;;;;;;;;3569026;39;113691;-75
2021/04/30 02:26:16;;;;;;;;;5.25;5.00;;;;;;;;3568104;39;113753;-75
2021/04/30 02:28:45;;;;;;;;;5.75;4.75;;;;;;;;3569868;39;113086;-75
2021/04/30 02:31:12;;;;;;;;;3.75;3.75;;;;;;;;3567818;39;112292;-76
2021/04/30 02:33:38;;;;;;;;;3.00;3.00;;;;;;;;3564928;39;112940;-77
2021/04/30 02:36:05;;;;;;;;;4.00;3.75;;;;;;;;3568244;39;111911;-78
2021/04/30 02:38:31;;;;;;;;;6.00;4.00;;;;;;;;3569967;39;113602;-78
2021/04/30 02:40:59;;;;;;;;;5.00;3.50;;;;;;;;3567688;39;113496;-76
2021/04/30 02:43:25;;;;;;;;;3.00;3.00;;;;;;;;3571838;39;113251;-76
2021/04/30 02:45:51;;;;;;;;;3.75;3.75;;;;;;;;3569198;39;114036;-76
2021/04/30 02:48:25;;;;;;;;;4.25;4.25;;;;;;;;3570603;39;111893;-78
2021/04/30 02:50:51;;;;;;;;;4.00;4.00;;;;;;;;3569624;39;113588;-82
2021/04/30 02:53:17;;;;;;;;;3.00;3.00;;;;;;;;3569704;39;114023;-80
2021/04/30 02:55:43;;;;;;;;;5.75;4.75;;;;;;;;3569824;39;111933;-81
2021/04/30 02:58:10;;;;;;;;;3.00;3.00;;;;;;;;3572982;39;113399;-83
2021/04/30 03:00:36;;;;;;;;;2.00;2.00;;;;;;;;3569468;39;112289;-85
2021/04/30 03:03:02;;;;;;;;;4.75;4.00;;;;;;;;3569219;39;113696;-79
2021/04/30 03:05:29;;;;;;;;;3.25;2.00;;;;;;;;3570366;39;113746;-79
2021/04/30 03:07:55;;;;;;;;;3.00;3.00;;;;;;;;3569554;39;112202;-80
2021/04/30 03:10:22;;;;;;;;;4.00;3.00;;;;;;;;3570281;39;113783;-81
2021/04/30 03:12:48;;;;;;;;;3.75;3.00;;;;;;;;3569720;39;113864;-80
2021/04/30 03:15:15;;;;;;;;;3.75;3.00;;;;;;;;3569562;39;111887;-80
2021/04/30 03:17:42;;;;;;;;;3.00;3.00;;;;;;;;3570726;39;113344;-80
2021/04/30 03:20:08;;;;;;;;;2.25;2.25;;;;;;;;3571467;39;114374;-80
2021/04/30 03:22:36;;;;;;;;;4.00;3.00;;;;;;;;3571100;39;113275;-81
2021/04/30 03:25:02;;;;;;;;;3.25;2.25;;;;;;;;3568826;39;113887;-80
2021/04/30 03:27:29;;;;;;;;;3.00;3.00;;;;;;;;3570726;39;111870;-80
2021/04/30 03:29:55;;;;;;;;;3.00;3.00;;;;;;;;3569788;39;114200;-80
2021/04/30 03:32:21;;;;;;;;;4.25;3.00;;;;;;;;3569748;39;113421;-80
2021/04/30 03:34:47;;;;;;;;;2.00;2.00;;;;;;;;3570418;39;111788;-80
2021/04/30 03:37:13;;;;;;;;;3.00;2.25;;;;;;;;3569706;39;113521;-81
2021/04/30 03:39:40;;;;;;;;;3.25;3.25;;;;;;;;3570334;39;113977;-81
2021/04/30 03:42:06;;;;;;;;;5.00;3.00;;;;;;;;3571796;39;111855;-81
2021/04/30 03:44:32;;;;;;;;;3.00;3.00;;;;;;;;3568784;39;115013;-82
2021/04/30 03:46:58;;;;;;;;;3.00;3.00;;;;;;;;3570533;39;111859;-81
2021/04/30 03:49:24;;;;;;;;;3.50;3.50;;;;;;;;3569470;39;113234;-81
2021/04/30 03:51:50;;;;;;;;;3.50;3.50;;;;;;;;3570004;39;114073;-85
2021/04/30 03:54:17;;;;;;;;;4.75;4.75;;;;;;;;3571801;39;112322;-80
2021/04/30 03:56:43;;;;;;;;;4.00;4.00;;;;;;;;3569475;39;113326;-77
2021/04/30 03:59:09;;;;;;;;;5.00;5.00;;;;;;;;3569648;39;113916;-76
2021/04/30 04:01:35;;;;;;;;;5.25;5.00;;;;;;;;3569302;39;111759;-76
2021/04/30 04:04:01;;;;;;;;;3.50;3.00;;;;;;;;3570814;39;113311;-76
2021/04/30 04:06:27;;;;;;;;;6.00;5.00;;;;;;;;3569194;39;112057;-77
2021/04/30 04:08:53;;;;;;;;;4.25;4.25;;;;;;;;3570312;39;113089;-76
2021/04/30 04:11:20;;;;;;;;;4.50;4.25;;;;;;;;3569157;39;114023;-77
2021/04/30 04:13:47;;;;;;;;;7.25;5.00;;;;;;;;3571909;39;111855;-77
2021/04/30 04:16:13;;;;;;;;;4.25;4.00;;;;;;;;3569909;39;113523;-75
2021/04/30 04:18:39;;;;;;;;;5.00;5.00;;;;;;;;3568675;39;114762;-76
2021/04/30 04:21:05;;;;;;;;;6.00;6.00;;;;;;;;3570577;39;112067;-76
2021/04/30 04:23:31;;;;;;;;;5.00;5.00;;;;;;;;3568926;39;113249;-77
2021/04/30 04:25:57;;;;;;;;;5.00;4.00;;;;;;;;3572495;39;114141;-75
2021/04/30 04:28:23;;;;;;;;;8.50;6.00;;;;;;;;3569419;39;113908;-75
2021/04/30 04:30:52;;;;;;;;;10.00;10.00;;;;;;;;3569091;39;114353;-76
2021/04/30 04:33:18;;;;;;;;;9.75;8.75;;;;;;;;3569739;39;111792;-76
2021/04/30 04:35:44;;;;;;;;;9.75;8.00;;;;;;;;3569239;39;113251;-76
2021/04/30 04:38:10;;;;;;;;;8.25;6.00;;;;;;;;3569771;39;113706;-76
2021/04/30 04:40:36;;;;;;;;;8.50;8.50;;;;;;;;3568934;39;111770;-75
2021/04/30 04:43:02;;;;;;;;;8.75;8.25;;;;;;;;3570377;39;113186;-75
2021/04/30 04:45:28;;;;;;;;;10.00;9.00;;;;;;;;3566314;39;113127;-75
2021/04/30 04:47:55;;;;;;;;;9.00;7.25;;;;;;;;3572645;39;111989;-75
2021/04/30 04:50:21;;;;;;;;;11.00;11.00;;;;;;;;3569004;39;114532;-77
2021/04/30 04:52:48;;;;;;;;;10.00;10.00;;;;;;;;3569233;39;112335;-75
2021/04/30 04:55:16;;;;;;;;;13.75;6.00;;;;;;;;3569882;39;113624;-76
2021/04/30 04:57:42;;;;;;;;;8.00;8.00;;;;;;;;3568407;39;114275;-75
2021/04/30 05:00:09;;;;;;;;;7.50;7.50;;;;;;;;3570374;39;112378;-75
2021/04/30 05:02:35;;;;;;;;;6.50;6.50;;;;;;;;3570015;39;113914;-76
2021/04/30 05:05:03;;;;;;;;;8.50;5.25;;;;;;;;3562652;39;112962;-76
2021/04/30 05:07:29;;;;;;;;;6.75;4.75;;;;;;;;3572766;39;111973;-76
2021/04/30 05:09:56;;;;;;;;;5.75;5.75;;;;;;;;3568795;39;113872;-76
2021/04/30 05:12:22;;;;;;;;;5.75;5.50;;;;;;;;3569502;39;112051;-76
2021/04/30 05:14:48;;;;;;;;;9.75;9.75;;;;;;;;3571979;39;113020;-76
2021/04/30 05:17:14;;;;;;;;;5.00;5.00;;;;;;;;3568530;39;113883;-76
2021/04/30 05:19:40;;;;;;;;;5.75;5.75;;;;;;;;3570299;39;111885;-76
2021/04/30 05:22:10;;;;;;;;;9.75;8.50;;;;;;;;3571014;39;113153;-76
2021/04/30 05:24:36;;;;;;;;;9.75;8.50;;;;;;;;3568024;39;113901;-75
2021/04/30 05:27:04;;;;;;;;;9.00;5.75;;;;;;;;3571797;39;111913;-76
2021/04/30 05:29:30;;;;;;;;;5.25;5.00;;;;;;;;3571037;39;113188;-80
2021/04/30 05:31:56;;;;;;;;;7.25;7.00;;;;;;;;3570744;39;112585;-78
2021/04/30 05:34:22;;;;;;;;;6.00;6.00;;;;;;;;3569268;39;113256;-81
2021/04/30 05:36:48;;;;;;;;;7.50;6.00;;;;;;;;3569470;39;113775;-78
2021/04/30 05:39:14;;;;;;;;;9.00;9.00;;;;;;;;3568499;39;111871;-76
2021/04/30 05:41:40;;;;;;;;;11.00;9.75;;;;;;;;3570269;39;113666;-78
2021/04/30 05:44:06;;;;;;;;;11.00;10.00;;;;;;;;3569051;39;116624;-77
2021/04/30 05:46:33;;;;;;;;;9.75;8.50;;;;;;;;3568838;39;111971;-77
2021/04/30 05:48:59;;;;;;;;;12.00;5.00;;;;;;;;3568149;39;114204;-76
2021/04/30 05:51:25;;;;;;;;;9.00;9.00;;;;;;;;3570695;39;114142;-79
2021/04/30 05:53:51;;;;;;;;;9.50;9.00;;;;;;;;3568247;39;113106;-78
2021/04/30 05:56:17;;;;;;;;;13.00;11.75;;;;;;;;3567517;39;114360;-72
2021/04/30 05:58:43;;;;;;;;;13.50;10.25;;;;;;;;3569169;39;113280;-73
2021/04/30 06:01:10;;;;;;;;;10.50;9.50;;;;;;;;3567738;39;113401;-75
2021/04/30 06:03:38;;;;;;;;;7.25;7.00;;;;;;;;3566768;39;113957;-77
2021/04/30 06:06:04;;;;;;;;;7.00;6.00;;;;;;;;3569316;39;112422;-84
2021/04/30 06:08:31;;;;;;;;;8.50;8.00;;;;;;;;3567775;39;113231;-80
2021/04/30 06:10:57;;;;;;;;;4.75;4.50;;;;;;;;3568343;39;113856;-85
2021/04/30 06:13:23;;;;;;;;;1.50;1.50;;;;;;;;3570979;39;112246;-78
2021/04/30 06:15:50;;;;;;;;;5.75;5.00;;;;;;;;3565581;39;114063;-84
2021/04/30 06:18:16;;;;;;;;;5.00;4.00;;;;;;;;3565539;39;112003;-76
2021/04/30 06:20:42;;;;;;;;;2.75;2.75;;;;;;;;3566351;39;113392;-78
2021/04/30 06:23:08;;;;;;;;;2.00;1.00;;;;;;;;3568893;39;114219;-77
2021/04/30 06:25:34;;;;;;;;;2.00;2.00;;;;;;;;3567514;39;112433;-77
2021/04/30 06:28:00;;;;;;;;;6.00;3.00;;;;;;;;3568484;39;113548;-78
2021/04/30 06:30:27;;;;;;;;;3.00;2.00;;;;;;;;3567964;39;113882;-79
2021/04/30 06:32:53;;;;;;;;;1.00;1.00;;;;;;;;3568701;39;111818;-77
2021/04/30 06:35:19;;;;;;;;;1.00;1.00;;;;;;;;3571309;39;113221;-79
2021/04/30 06:37:45;;;;;;;;;1.00;1.00;;;;;;;;3567799;39;113304;-81
2021/04/30 06:40:11;;;;;;;;;4.00;2.25;;;;;;;;3569541;39;113416;-80
2021/04/30 06:42:39;;;;;;;;;2.00;2.00;;;;;;;;3567302;39;114179;-82
2021/04/30 06:45:06;;;;;;;;;3.00;3.00;;;;;;;;3567819;39;111718;-76
2021/04/30 06:47:34;;;;;;;;;8.00;5.00;;;;;;;;3571160;39;113652;-84
2021/04/30 06:50:00;;;;;;;;;5.00;3.50;;;;;;;;3571341;39;114358;-81
2021/04/30 06:52:26;;;;;;;;;1.75;1.75;;;;;;;;3568568;39;111852;-80
2021/04/30 06:54:52;;;;;;;;;2.00;2.00;;;;;;;;3569908;39;113414;-83
2021/04/30 06:57:18;;;;;;;;;6.25;3.00;;;;;;;;3569935;39;112735;-80
2021/04/30 06:59:44;;;;;;;;;5.50;4.25;;;;;;;;3569246;39;113360;-79
2021/04/30 07:02:10;;;;;;;;;2.50;2.50;;;;;;;;3565847;39;114052;-81
2021/04/30 07:06:34;;;;;;;;;3.50;3.50;;;;;;;;3547027;39;881764;-78
2021/04/30 07:09:00;;;;;;;;;4.00;2.25;;;;;;;;3566235;39;114084;-76
2021/04/30 07:11:26;;;;;;;;;3.00;3.00;;;;;;;;3565651;39;111855;-76
2021/04/30 07:13:54;;;;;;;;;3.00;3.00;;;;;;;;3562312;39;113178;-77
2021/04/30 07:16:20;;;;;;;;;3.00;2.50;;;;;;;;3563086;39;114357;-78
2021/04/30 07:18:46;;;;;;;;;5.50;3.75;;;;;;;;3566097;39;113038;-77
2021/04/30 07:21:12;;;;;;;;;4.00;4.00;;;;;;;;3567638;39;113335;-78
2021/04/30 07:23:39;;;;;;;;;2.50;2.50;;;;;;;;3567317;39;113663;-82
2021/04/30 07:26:06;;;;;;;;;2.00;2.00;;;;;;;;3566494;39;112028;-83
2021/04/30 07:28:32;;;;;;;;;3.00;3.00;;;;;;;;3566535;39;114270;-84
2021/04/30 07:30:58;;;;;;;;;2.25;1.00;;;;;;;;3566449;39;111795;-81
2021/04/30 07:33:25;;;;;;;;;1.50;1.50;;;;;;;;3566852;39;113775;-78
2021/04/30 07:35:51;;;;;;;;;2.75;1.75;;;;;;;;3566384;39;114168;-78
2021/04/30 07:38:17;;;;;;;;;4.75;2.75;;;;;;;;3565825;39;112339;-78
2021/04/30 07:40:44;;;;;;;;;2.00;2.00;;;;;;;;3567159;39;113226;-80
2021/04/30 07:43:10;;;;;;;;;2.00;2.00;;;;;;;;3565372;39;115049;-78
2021/04/30 07:45:37;;;;;;;;;2.00;2.00;;;;;;;;3566076;39;112073;-75
2021/04/30 07:48:03;;;;;;;;;3.25;3.00;;;;;;;;3568960;39;113203;-78
2021/04/30 07:50:29;;;;;;;;;2.75;2.75;;;;;;;;3565914;39;112006;-77
2021/04/30 07:52:55;;;;;;;;;2.00;2.00;;;;;;;;3565457;39;113300;-74
2021/04/30 07:55:21;;;;;;;;;4.25;3.00;;;;;;;;3565941;39;113957;-83
2021/04/30 07:57:48;;;;;;;;;6.00;3.50;;;;;;;;3566709;39;112205;-84
2021/04/30 08:00:15;;;;;;;;;3.25;2.50;;;;;;;;3565327;39;114168;-77
2021/04/30 08:02:41;;;;;;;;;6.00;3.00;;;;;;;;3563970;39;114294;-86
2021/04/30 08:05:08;;;;;;;;;2.00;2.00;;;;;;;;3564648;39;115946;-79
2021/04/30 08:07:34;;;;;;;;;2.75;2.00;;;;;;;;3566008;39;113106;-78
2021/04/30 08:10:00;;;;;;;;;1.00;1.00;;;;;;;;3567688;39;114331;-75
2021/04/30 08:12:26;;;;;;;;;1.00;1.00;;;;;;;;3566006;39;113301;-75
2021/04/30 08:14:53;;;;;;;;;1.75;1.75;;;;;;;;3565977;39;113855;-76
2021/04/30 08:17:19;;;;;;;;;3.25;2.00;;;;;;;;3559506;39;112136;-85
2021/04/30 08:19:45;;;;;;;;;4.00;4.00;;;;;;;;3560583;39;113172;-78
2021/04/30 08:22:11;;;;;;;;;4.00;1.00;;;;;;;;3557936;39;113726;-80
2021/04/30 08:24:37;;;;;;;;;3.25;3.25;;;;;;;;3559728;39;112190;-78
2021/04/30 08:27:03;;;;;;;;;2.00;1.00;;;;;;;;3552390;39;113194;-70
2021/04/30 08:29:29;;;;;;;;;1.50;1.50;;;;;;;;3558509;39;113948;-72
2021/04/30 08:31:57;;;;;;;;;4.00;3.00;;;;;;;;3561686;39;112158;-68
2021/04/30 08:34:23;;;;;;;;;2.00;2.00;;;;;;;;3558393;39;112863;-69
2021/04/30 08:36:49;;;;;;;;;1.50;1.50;;;;;;;;3554309;39;114208;-70
2021/04/30 08:39:15;;;;;;;;;3.25;1.25;;;;;;;;3555333;39;113209;-69
2021/04/30 08:41:41;;;;;;;;;2.50;1.75;;;;;;;;3557704;39;114359;-71
2021/04/30 08:44:08;;;;;;;;;1.00;1.00;;;;;;;;3560330;39;111997;-72
2021/04/30 08:46:35;;;;;;;;;48.50;40.75;;;;;;;;3557884;39;113228;-72
2021/04/30 08:49:03;;;;;;;;;10.00;7.00;;;;;;;;3558493;39;114116;-68
2021/04/30 08:51:29;;;;;;;;;5.67;5.00;;;;;;;;3552397;39;112657;-71
2021/04/30 08:53:56;;;;;;;;;4.00;4.00;;;;;;;;3561344;39;113485;-72
2021/04/30 08:56:22;;;;;;;;;1.00;1.00;;;;;;;;3559317;39;112341;-70
2021/04/30 08:58:48;;;;;;;;;13.67;12.33;;;;;;;;3558330;39;113365;-73
2021/04/30 09:01:14;;;;;;;;;4.00;4.00;;;;;;;;3559354;39;114215;-77
2021/04/30 09:03:40;;;;;;;;;6.00;6.00;;;;;;;;3556730;39;112060;-79
2021/04/30 09:06:07;;;;;;;;;2.67;2.67;;;;;;;;3558739;39;113391;-76
2021/04/30 09:08:44;;;;;;;;;1.00;1.00;;;;;;;;3552334;39;113740;-81
2021/04/30 09:11:10;;;;;;;;;2.67;1.67;;;;;;;;3556201;39;111756;-83
2021/04/30 09:13:40;;;;;;;;;4.00;2.00;;;;;;;;3559221;39;113475;-81
2021/04/30 09:16:06;;;;;;;;;2.33;2.33;;;;;;;;3560273;39;113830;-84
2021/04/30 09:18:33;;;;;;;;;3.00;3.00;;;;;;;;3553835;39;113289;-79
2021/04/30 09:21:06;;;;;;;;;2.00;2.00;;;;;;;;3555743;39;113841;-82
2021/04/30 09:23:34;;;;;;;;;2.00;2.00;;;;;;;;3557377;39;112242;-82
2021/04/30 09:26:01;;;;;;;;;4.00;4.00;;;;;;;;3559609;39;113543;-81
2021/04/30 09:28:27;;;;;;;;;3.00;3.00;;;;;;;;3557111;39;114078;-79
2021/04/30 09:30:53;;;;;;;;;9.00;6.00;;;;;;;;3559412;39;111874;-77
2021/04/30 09:33:19;;;;;;;;;8.33;5.00;;;;;;;;3557891;39;111995;-77
2021/04/30 09:35:46;;;;;;;;;4.00;3.67;;;;;;;;3558400;39;114745;-77
2021/04/30 09:38:16;;;;;;;;;4.33;4.00;;;;;;;;3560574;39;113533;-78
2021/04/30 09:40:43;;;;;;;;;5.00;4.33;;;;;;;;3555286;39;114040;-86
2021/04/30 09:43:10;;;;;;;;;4.67;3.33;;;;;;;;3558416;39;111839;-80
2021/04/30 09:45:36;;;;;;;;;5.00;5.00;;;;;;;;3559922;39;112976;-80
2021/04/30 09:48:03;;;;;;;;;5.00;3.33;;;;;;;;3559374;39;114645;-82
2021/04/30 09:50:30;;;;;;;;;5.25;5.00;;;;;;;;3556845;39;112599;-77
2021/04/30 09:52:58;;;;;;;;;3.50;3.00;;;;;;;;3554969;39;113251;-78
2021/04/30 09:55:37;;;;;;;;;9.00;9.00;;;;;;;;3555220;39;114222;-80
2021/04/30 09:58:11;;;;;;;;;5.00;5.00;;;;;;;;3561679;39;112790;-80
2021/04/30 10:00:37;;;;;;;;;4.50;4.00;;;;;;;;3556077;39;113975;-78
2021/04/30 10:03:11;;;;;;;;;5.00;3.25;;;;;;;;3556270;39;112632;-81
2021/04/30 10:05:37;;;;;;;;;5.00;4.00;;;;;;;;3559587;39;113502;-85
2021/04/30 10:08:13;;;;;;;;;5.25;3.00;;;;;;;;3558474;39;114392;-77
2021/04/30 10:10:39;;;;;;;;;3.25;3.25;;;;;;;;3554865;39;112200;-86
2021/04/30 10:13:05;;;;;;;;;5.00;3.00;;;;;;;;3546949;39;113692;-81
2021/04/30 10:15:32;;;;;;;;;5.75;5.25;;;;;;;;3558446;39;114121;-84
2021/04/30 10:17:59;;;;;;;;;8.25;5.25;;;;;;;;3558819;39;111937;-80
2021/04/30 10:20:25;;;;;;;;;5.00;5.00;;;;;;;;3560899;39;113217;-81
2021/04/30 10:22:52;;;;;;;;;6.25;5.25;;;;;;;;3558813;39;112297;-79
2021/04/30 10:25:19;;;;;;;;;4.50;3.50;;;;;;;;3558016;39;112422;-78
2021/04/30 10:27:45;;;;;;;;;3.00;3.00;;;;;;;;3558641;39;114549;-79
2021/04/30 10:30:13;;;;;;;;;4.50;4.50;;;;;;;;3557865;39;111933;-79
2021/04/30 10:32:42;;;;;;;;;6.00;5.00;;;;;;;;3547792;39;114744;-77
2021/04/30 10:35:09;;;;;;;;;6.00;5.00;;;;;;;;3558500;39;113957;-76
2021/04/30 10:37:39;;;;;;;;;7.50;6.00;;;;;;;;3557738;39;111990;-76
2021/04/30 10:40:06;;;;;;;;;5.00;4.00;;;;;;;;3559234;39;113494;-76
2021/04/30 10:42:39;;;;;;;;;3.25;3.25;;;;;;;;3560015;39;113952;-78
2021/04/30 10:45:06;;;;;;;;;5.25;4.25;;;;;;;;3558827;39;113192;-80
2021/04/30 10:47:33;;;;;;;;;4.00;3.00;;;;;;;;3557514;39;112887;-87
2021/04/30 10:50:13;;;;;;;;;6.00;3.00;;;;;;;;3552551;39;112655;-76
2021/04/30 10:52:39;;;;;;;;;4.75;3.50;;;;;;;;3555558;39;114382;-76
2021/04/30 10:55:06;;;;;;;;;3.25;3.00;;;;;;;;3557468;39;113941;-75
2021/04/30 10:57:52;;;;;;;;;5.25;4.50;;;;;;;;3527472;39;112714;-75
2021/04/30 11:00:19;;;;;;;;;2.00;2.00;;;;;;;;3526214;39;113224;-75
2021/04/30 11:02:45;;;;;;;;;3.00;2.00;;;;;;;;3527932;39;114197;-76
2021/04/30 11:05:16;;;;;;;;;4.00;4.00;;;;;;;;3530095;39;112273;-74
2021/04/30 11:07:43;;;;;;;;;4.25;4.25;;;;;;;;3524622;39;113863;-73
2021/04/30 11:10:30;;;;;;;;;7.00;5.00;;;;;;;;3525367;39;111783;-72
2021/04/30 11:12:57;;;;;;;;;4.75;3.50;;;;;;;;3527437;39;113561;-72
2021/04/30 11:15:23;;;;;;;;;5.00;4.00;;;;;;;;3528202;39;114085;-74
2021/04/30 11:17:52;;;;;;;;;3.50;3.50;;;;;;;;3528048;39;111988;-72
2021/04/30 11:20:21;;;;;;;;;3.50;3.00;;;;;;;;3529125;39;113373;-75
2021/04/30 11:23:02;;;;;;;;;4.25;3.75;;;;;;;;3527492;39;114291;-77
2021/04/30 11:25:28;;;;;;;;;4.50;3.00;;;;;;;;3519230;39;112309;-72
2021/04/30 11:27:54;;;;;;;;;4.00;4.00;;;;;;;;3526424;39;113967;-74
2021/04/30 11:30:24;;;;;;;;;3.75;3.00;;;;;;;;3528030;39;112868;-73
2021/04/30 11:32:57;;;;;;;;;4.50;3.75;;;;;;;;3526462;39;113380;-77
2021/04/30 11:35:25;;;;;;;;;3.50;3.50;;;;;;;;3527783;39;114996;-79
2021/04/30 11:37:51;;;;;;;;;5.00;3.00;;;;;;;;3528598;39;111925;-72
2021/04/30 11:40:17;;;;;;;;;4.00;4.00;;;;;;;;3527807;39;113359;-73
2021/04/30 11:42:44;;;;;;;;;5.00;4.75;;;;;;;;3528647;39;113866;-72
2021/04/30 11:45:10;;;;;;;;;5.25;3.00;;;;;;;;3525109;39;112484;-72
2021/04/30 11:47:38;;;;;;;;;5.00;4.00;;;;;;;;3531114;39;113374;-72
2021/04/30 11:50:05;;;;;;;;;4.50;4.50;;;;;;;;3527387;39;112178;-72
2021/04/30 11:52:35;;;;;;;;;5.00;5.00;;;;;;;;3530582;39;113550;-73
2021/04/30 11:55:03;;;;;;;;;5.00;5.00;;;;;;;;3526043;39;114295;-74
2021/04/30 11:57:30;;;;;;;;;4.00;4.00;;;;;;;;3528882;39;112369;-76
2021/04/30 11:59:56;;;;;;;;;6.25;4.00;;;;;;;;3529074;39;113248;-74
2021/04/30 12:02:24;;;;;;;;;5.00;5.00;;;;;;;;3528793;39;113913;-75
2021/04/30 12:04:51;;;;;;;;;4.25;4.25;;;;;;;;3526580;39;112895;-77
2021/04/30 12:07:18;;;;;;;;;3.25;3.25;;;;;;;;3529504;39;113234;-75
2021/04/30 12:09:45;;;;;;;;;6.75;4.25;;;;;;;;3529912;39;114795;-72
2021/04/30 12:12:16;;;;;;;;;4.75;4.75;;;;;;;;3530033;39;113662;-72
2021/04/30 12:14:43;;;;;;;;;4.75;3.75;;;;;;;;3525423;39;114293;-71
2021/04/30 12:17:18;;;;;;;;;6.75;5.50;;;;;;;;3526140;39;111904;-72
2021/04/30 12:19:53;;;;;;;;;5.00;4.00;;;;;;;;3526452;39;113227;-72
2021/04/30 12:22:19;;;;;;;;;4.50;4.00;;;;;;;;3529017;39;113900;-79
2021/04/30 12:24:45;;;;;;;;;4.75;4.75;;;;;;;;3527643;39;111976;-82
2021/04/30 12:27:23;;;;;;;;;3.50;3.50;;;;;;;;3530803;39;114597;-87
2021/04/30 12:29:50;;;;;;;;;4.25;4.25;;;;;;;;3527375;39;113924;-77
2021/04/30 12:32:22;;;;;;;;;3.75;3.00;;;;;;;;3532403;39;111814;-78
2021/04/30 12:34:48;;;;;;;;;4.00;4.00;;;;;;;;3527088;39;114396;-75
2021/04/30 12:37:14;;;;;;;;;5.50;5.50;;;;;;;;3528244;39;112124;-69
2021/04/30 12:39:41;;;;;;;;;3.75;3.75;;;;;;;;3529560;39;113295;-72
2021/04/30 12:42:08;;;;;;;;;4.25;4.00;;;;;;;;3530756;39;114121;-71
2021/04/30 12:44:34;;;;;;;;;4.50;3.00;;;;;;;;3531808;39;112040;-71
2021/04/30 12:47:03;;;;;;;;;4.25;4.25;;;;;;;;3530139;39;113529;-73
2021/04/30 12:49:33;;;;;;;;;2.25;2.25;;;;;;;;3531115;39;114422;-72
2021/04/30 12:52:03;;;;;;;;;5.75;5.00;;;;;;;;3533415;39;112013;-71
2021/04/30 12:54:29;;;;;;;;;5.00;4.00;;;;;;;;3532199;39;113297;-71
2021/04/30 12:56:56;;;;;;;;;4.00;4.00;;;;;;;;3531696;39;112019;-72
2021/04/30 12:59:25;;;;;;;;;4.50;4.00;;;;;;;;3529205;39;113370;-72
2021/04/30 13:01:52;;;;;;;;;4.50;4.50;;;;;;;;3529214;39;113981;-71
2021/04/30 13:04:18;;;;;;;;;4.75;4.00;;;;;;;;3528104;39;113634;-71
2021/04/30 13:06:45;;;;;;;;;3.50;3.50;;;;;;;;3531740;39;113315;-71
2021/04/30 15:38:37;;;;;;;;;11.00;10.00;;;;;;;;3556634;39;956061;-73
2021/04/30 15:41:05;;;;;;;;;9.50;7.75;;;;;;;;3571588;39;113978;-72
2021/04/30 15:43:31;;;;;;;;;8.75;6.00;;;;;;;;3576223;39;111744;-72
2021/04/30 15:45:57;;;;;;;;;9.50;7.75;;;;;;;;3576152;39;113247;-72
2021/04/30 15:48:25;;;;;;;;;10.00;9.00;;;;;;;;3573010;39;113998;-71
2021/04/30 15:50:51;;;;;;;;;7.75;7.75;;;;;;;;3574659;39;112006;-72
2021/04/30 15:53:17;;;;;;;;;10.00;10.00;;;;;;;;3577162;39;113142;-71
2021/04/30 15:55:44;;;;;;;;;9.00;7.00;;;;;;;;3574912;39;114115;-72
2021/04/30 15:58:11;;;;;;;;;11.50;8.00;;;;;;;;3579182;39;113113;-72
2021/04/30 16:00:37;;;;;;;;;10.75;9.00;;;;;;;;3574292;39;114149;-72
2021/04/30 16:03:03;;;;;;;;;9.75;9.00;;;;;;;;3575723;39;111874;-70
2021/04/30 16:05:29;;;;;;;;;10.75;9.00;;;;;;;;3575636;39;112921;-71
2021/04/30 16:07:55;;;;;;;;;9.50;9.50;;;;;;;;3575212;39;113941;-70
2021/04/30 16:10:21;;;;;;;;;10.50;8.00;;;;;;;;3575033;39;112283;-71
2021/04/30 16:12:48;;;;;;;;;9.25;9.25;;;;;;;;3574550;39;113420;-72
2021/04/30 16:15:14;;;;;;;;;9.00;9.00;;;;;;;;3573822;39;114029;-71
2021/04/30 16:17:40;;;;;;;;;10.00;10.00;;;;;;;;3574572;39;111937;-71
2021/04/30 16:20:07;;;;;;;;;11.00;10.00;;;;;;;;3577860;39;113093;-71
2021/04/30 16:22:33;;;;;;;;;8.50;7.50;;;;;;;;3575469;39;112287;-71
2021/04/30 16:24:59;;;;;;;;;7.25;6.00;;;;;;;;3573732;39;112627;-72
2021/04/30 16:27:25;;;;;;;;;7.75;7.00;;;;;;;;3575842;39;114207;-72
2021/04/30 16:29:52;;;;;;;;;8.50;8.00;;;;;;;;3574966;39;111968;-71
2021/04/30 16:32:18;;;;;;;;;8.00;7.00;;;;;;;;3574400;39;113180;-73
2021/04/30 16:34:44;;;;;;;;;6.75;5.50;;;;;;;;3574089;39;114470;-70
2021/04/30 16:37:10;;;;;;;;;5.00;5.00;;;;;;;;3577713;39;111975;-71
2021/04/30 16:39:36;;;;;;;;;5.50;5.50;;;;;;;;3579329;39;113875;-72
2021/04/30 16:42:02;;;;;;;;;8.00;6.50;;;;;;;;3580555;39;114013;-72
2021/04/30 16:44:28;;;;;;;;;6.75;5.75;;;;;;;;3579473;39;113772;-73
2021/04/30 16:46:56;;;;;;;;;6.25;5.25;;;;;;;;3578275;39;114126;-72
2021/04/30 16:49:22;;;;;;;;;3.50;2.25;;;;;;;;3573366;39;112908;-75
2021/04/30 16:51:48;;;;;;;;;5.25;4.75;;;;;;;;3572880;39;113731;-72
2021/04/30 16:54:19;;;;;;;;;6.50;6.50;;;;;;;;3570759;39;115010;-72
2021/04/30 16:56:47;;;;;;;;;6.00;6.00;;;;;;;;3570979;39;111844;-78
2021/04/30 16:59:13;;;;;;;;;7.00;5.00;;;;;;;;3571317;39;114285;-77